Terminal Aerodrome Forecast
Issued by NWS

Current Version | Previous Version | Graphics & Text | Print | Product List | Glossary On
Versions: 1 2 3 4 5 6 7 8 9 10 11 12 13 14
000
FTUS41 KILN 301100 RRA
TAFLCK
TAF
KLCK 301141Z 3012/3112 20005KT P6SM SCT040
     FM301500 25008KT P6SM VCSH BKN040
     FM302000 25008KT P6SM BKN040
     FM310000 22003KT P6SM SCT080=

USA.gov is the U.S. government's official web portal to all federal, state and local government web resources and services.